Time;durP1;ratioP1;P1;durP2;ratioP2;P2;SDS_P1;SDS_P2;PMS_P1;PMS_P2;Temp;Humidity;BMP_temperature;BMP_pressure;BME280_temperature;BME280_humidity;BME280_pressure;Samples;Min_cycle;Max_cycle;Signal;HPM_P1;HPM_P2
2021/12/13 00:00:15;;;;;;;8.15;5.10;;;8.30;58.90;;;;;;5027258;28;34167;-77
2021/12/13 00:02:57;;;;;;;9.10;4.85;;;8.30;58.90;;;;;;5045367;28;34098;-77
2021/12/13 00:05:34;;;;;;;8.95;5.15;;;8.30;58.90;;;;;;5028419;28;34098;-77
2021/12/13 00:08:05;;;;;;;9.40;4.70;;;8.30;58.90;;;;;;5027233;28;35851;-77
2021/12/13 00:10:40;;;;;;;8.88;4.85;;;8.30;59.50;;;;;;5027092;28;34191;-77
2021/12/13 00:13:13;;;;;;;7.38;4.68;;;8.30;58.80;;;;;;5045541;28;34138;-77
2021/12/13 00:15:48;;;;;;;7.53;4.32;;;8.30;58.80;;;;;;4995706;28;34066;-77
2021/12/13 00:18:20;;;;;;;8.07;4.68;;;8.30;58.90;;;;;;5044756;28;34216;-77
2021/12/13 00:20:52;;;;;;;8.52;4.57;;;8.30;58.80;;;;;;5011816;28;34536;-77
2021/12/13 00:23:25;;;;;;;8.75;4.50;;;8.30;58.80;;;;;;5011919;28;34242;-77
2021/12/13 00:25:57;;;;;;;7.70;4.50;;;8.30;58.70;;;;;;5029108;28;34060;-77
2021/12/13 00:28:26;;;;;;;9.15;5.55;;;8.40;58.60;;;;;;5011513;28;36660;-77
2021/12/13 00:31:12;;;;;;;9.90;5.32;;;8.40;58.70;;;;;;5027901;28;34123;-77
2021/12/13 00:34:01;;;;;;;11.85;5.68;;;8.40;58.70;;;;;;5029478;28;34159;-77
2021/12/13 00:36:35;;;;;;;10.20;5.18;;;8.40;58.70;;;;;;5044789;28;34112;-77
2021/12/13 00:39:12;;;;;;;7.45;4.80;;;8.40;58.70;;;;;;5010648;28;35936;-77
2021/12/13 00:41:43;;;;;;;9.48;5.47;;;8.40;58.70;;;;;;5010926;28;34241;-77
2021/12/13 00:44:24;;;;;;;8.77;5.40;;;8.40;58.70;;;;;;5011754;28;34255;-77
2021/12/13 00:46:53;;;;;;;10.07;5.97;;;8.40;58.70;;;;;;5027515;28;34571;-77
2021/12/13 00:49:23;;;;;;;12.30;5.95;;;8.40;58.70;;;;;;5027296;28;36101;-77
2021/12/13 00:51:52;;;;;;;11.20;5.43;;;8.40;58.70;;;;;;5028296;28;34349;-77
2021/12/13 00:54:24;;;;;;;11.40;6.30;;;8.40;58.70;;;;;;5026771;28;34296;-77
2021/12/13 00:57:17;;;;;;;10.70;6.13;;;8.40;58.70;;;;;;5028005;28;34171;-77
2021/12/13 00:59:48;;;;;;;12.75;6.72;;;8.40;58.70;;;;;;5014483;28;35969;-77
2021/12/13 01:02:27;;;;;;;10.60;6.13;;;8.40;58.60;;;;;;5028329;28;34134;-77
2021/12/13 01:05:19;;;;;;;14.75;6.22;;;8.40;58.60;;;;;;5028531;28;34432;-77
2021/12/13 01:08:07;;;;;;;11.90;5.80;;;8.40;59.30;;;;;;5044714;28;34368;-77
2021/12/13 01:11:05;;;;;;;9.93;5.90;;;8.40;58.70;;;;;;5027351;28;35624;-77
2021/12/13 01:13:37;;;;;;;8.50;5.18;;;8.40;58.70;;;;;;5011704;28;33990;-77
2021/12/13 01:16:23;;;;;;;9.95;5.65;;;8.40;58.60;;;;;;5045002;28;34213;-77
2021/12/13 01:19:00;;;;;;;10.75;6.32;;;8.40;58.60;;;;;;5030988;28;34093;-77
2021/12/13 01:21:39;;;;;;;15.45;6.20;;;8.40;58.60;;;;;;5026465;28;35731;-77
2021/12/13 01:24:30;;;;;;;8.43;4.95;;;8.40;58.60;;;;;;5027426;28;34543;-77
2021/12/13 01:26:56;;;;;;;9.10;5.38;;;8.40;58.60;;;;;;5013101;28;34173;-77
2021/12/13 01:29:27;;;;;;;15.35;6.70;;;8.30;58.60;;;;;;5026668;28;34086;-77
2021/12/13 01:31:58;;;;;;;17.60;7.03;;;8.30;58.60;;;;;;4994371;28;35724;-77
2021/12/13 01:34:26;;;;;;;19.00;7.72;;;8.30;58.60;;;;;;4994934;28;34472;-77
2021/12/13 01:37:05;;;;;;;11.55;6.60;;;8.30;58.60;;;;;;5027434;28;34257;-77
2021/12/13 01:39:34;;;;;;;13.70;5.93;;;8.40;58.60;;;;;;5026911;28;34379;-77
2021/12/13 01:42:06;;;;;;;12.38;7.30;;;8.30;58.70;;;;;;5026858;28;35790;-77
2021/12/13 01:44:36;;;;;;;13.05;6.32;;;8.30;58.70;;;;;;5027234;28;34142;-77
2021/12/13 01:47:20;;;;;;;19.52;7.20;;;8.30;58.70;;;;;;5010608;28;34091;-77
2021/12/13 01:49:52;;;;;;;14.77;7.15;;;8.40;58.80;;;;;;5009656;28;34322;-77
2021/12/13 01:52:24;;;;;;;14.48;6.53;;;8.30;58.70;;;;;;5009173;28;35537;-77
2021/12/13 01:54:51;;;;;;;16.33;7.82;;;8.30;58.80;;;;;;5025912;28;34069;-77
2021/12/13 01:57:26;;;;;;;11.32;6.85;;;8.30;58.80;;;;;;5009230;28;34172;-77
2021/12/13 02:00:08;;;;;;;12.98;7.32;;;8.30;58.80;;;;;;5011021;28;34053;-77
2021/12/13 02:02:40;;;;;;;11.82;6.75;;;8.30;58.80;;;;;;5013081;28;35542;-77
2021/12/13 02:05:12;;;;;;;14.05;7.60;;;8.30;58.80;;;;;;5030365;28;34458;-77
2021/12/13 02:07:51;;;;;;;14.65;7.25;;;8.30;58.80;;;;;;5029888;28;34202;-77
2021/12/13 02:10:23;;;;;;;15.38;7.22;;;8.40;58.80;;;;;;5046853;28;34303;-77
2021/12/13 02:12:57;;;;;;;11.80;6.80;;;8.30;58.80;;;;;;5029264;28;35712;-77
2021/12/13 02:18:11;;;;;;;17.95;7.63;;;8.30;58.90;;;;;;5045344;28;34168;-77
2021/12/13 02:20:42;;;;;;;17.40;7.38;;;8.30;58.90;;;;;;5006562;28;34243;-77
2021/12/13 02:23:08;;;;;;;12.18;7.28;;;8.30;58.90;;;;;;4989418;28;35947;-77
2021/12/13 02:25:40;;;;;;;13.13;6.55;;;8.30;58.90;;;;;;5006436;28;34401;-77
2021/12/13 02:28:13;;;;;;;11.05;6.25;;;8.30;58.90;;;;;;4989626;28;34065;-77
2021/12/13 02:30:57;;;;;;;10.32;6.00;;;8.30;58.90;;;;;;4989187;28;34103;-77
2021/12/13 02:33:28;;;;;;;11.68;6.53;;;8.30;59.00;;;;;;4988652;28;36592;-77
2021/12/13 02:36:13;;;;;;;11.73;6.68;;;8.30;58.90;;;;;;5023127;28;34215;-77
2021/12/13 02:38:41;;;;;;;13.02;6.78;;;8.30;59.00;;;;;;5007053;28;34185;-77
2021/12/13 02:41:09;;;;;;;14.57;6.85;;;8.30;58.90;;;;;;5006515;28;34232;-77
2021/12/13 02:43:41;;;;;;;13.82;6.57;;;8.30;58.90;;;;;;5005735;28;34371;-77
2021/12/13 02:46:08;;;;;;;10.63;5.82;;;8.30;58.90;;;;;;4989806;28;34471;-77
2021/12/13 02:48:41;;;;;;;9.70;5.20;;;8.30;58.90;;;;;;4988646;28;34449;-77
2021/12/13 02:51:26;;;;;;;12.05;6.03;;;8.30;59.00;;;;;;5005471;28;34291;-77
2021/12/13 02:53:59;;;;;;;10.40;5.60;;;8.30;59.20;;;;;;5005997;28;34408;-77
2021/12/13 02:56:31;;;;;;;9.15;5.25;;;8.30;59.00;;;;;;5005939;28;34235;-77
2021/12/13 02:58:59;;;;;;;11.45;5.85;;;8.30;59.00;;;;;;5005778;28;34201;-77
2021/12/13 03:01:32;;;;;;;10.30;5.72;;;8.30;59.20;;;;;;5023013;28;34540;-77
2021/12/13 03:04:02;;;;;;;9.45;5.43;;;8.30;59.10;;;;;;5005813;28;34242;-77
2021/12/13 03:06:32;;;;;;;12.60;5.97;;;8.30;59.10;;;;;;5005242;28;34067;-77
2021/12/13 03:09:04;;;;;;;12.88;5.28;;;8.30;59.10;;;;;;5004353;28;34310;-77
2021/12/13 03:11:34;;;;;;;12.20;5.63;;;8.30;59.20;;;;;;4986901;28;34244;-77
2021/12/13 03:14:06;;;;;;;9.80;5.53;;;8.30;59.20;;;;;;4987734;28;35949;-77
2021/12/13 03:16:44;;;;;;;11.73;5.78;;;8.30;59.30;;;;;;5003869;28;33631;-77
2021/12/13 03:19:28;;;;;;;8.00;4.82;;;8.30;59.30;;;;;;5003157;28;34511;-77
2021/12/13 03:22:29;;;;;;;11.25;5.95;;;8.30;59.40;;;;;;4986955;28;34428;-77
2021/12/13 03:25:14;;;;;;;9.00;5.35;;;8.30;59.50;;;;;;4990732;28;35854;-77
2021/12/13 03:28:07;;;;;;;8.38;4.78;;;8.30;59.30;;;;;;4987482;28;34076;-77
2021/12/13 03:30:55;;;;;;;11.45;5.47;;;8.30;59.40;;;;;;5003380;28;34062;-78
2021/12/13 03:33:31;;;;;;;8.68;4.80;;;8.30;59.30;;;;;;4988692;28;34096;-77
2021/12/13 03:36:04;;;;;;;11.15;5.43;;;8.30;59.30;;;;;;4985517;28;35968;-77
2021/12/13 03:38:35;;;;;;;11.25;5.32;;;8.30;59.20;;;;;;4986572;28;34235;-78
2021/12/13 03:41:09;;;;;;;10.88;5.57;;;8.30;59.20;;;;;;4987865;28;34187;-78
2021/12/13 03:43:41;;;;;;;9.70;5.22;;;8.30;59.00;;;;;;4986875;28;34564;-77
2021/12/13 03:46:09;;;;;;;11.80;5.85;;;8.40;59.00;;;;;;5001916;28;36056;-77
2021/12/13 03:48:37;;;;;;;8.68;5.15;;;8.40;59.00;;;;;;4985800;28;34312;-77
2021/12/13 03:51:09;;;;;;;9.52;5.43;;;8.40;59.00;;;;;;5002657;28;34170;-77
2021/12/13 03:53:36;;;;;;;8.82;4.88;;;8.40;58.90;;;;;;4985856;28;34836;-77
2021/12/13 03:56:11;;;;;;;9.93;5.20;;;8.40;58.90;;;;;;5002131;28;34310;-77
2021/12/13 03:58:47;;;;;;;9.45;5.13;;;8.40;58.90;;;;;;5001470;28;34238;-78
2021/12/13 04:01:25;;;;;;;9.45;4.93;;;8.40;58.90;;;;;;4985327;28;34380;-77
2021/12/13 04:03:54;;;;;;;11.27;5.45;;;8.40;58.90;;;;;;4985318;28;34228;-77
2021/12/13 04:06:21;;;;;;;12.63;6.18;;;8.40;58.90;;;;;;4985272;28;35919;-78
2021/12/13 04:08:50;;;;;;;10.18;5.68;;;8.40;58.90;;;;;;5002939;28;34342;-78
2021/12/13 04:11:17;;;;;;;10.20;5.60;;;8.40;58.90;;;;;;5001144;28;34387;-78
2021/12/13 04:13:55;;;;;;;10.27;5.55;;;8.50;59.00;;;;;;5000955;28;34219;-78
2021/12/13 04:16:33;;;;;;;11.63;5.70;;;8.50;59.00;;;;;;5001232;28;36168;-78
2021/12/13 04:19:07;;;;;;;10.07;5.28;;;8.40;58.90;;;;;;5001077;28;34237;-77
2021/12/13 04:21:45;;;;;;;11.55;5.68;;;8.40;58.90;;;;;;4985463;28;34442;-78
2021/12/13 04:24:29;;;;;;;12.82;5.70;;;8.40;59.00;;;;;;5000377;28;34108;-78
2021/12/13 04:27:00;;;;;;;10.35;5.47;;;8.40;59.00;;;;;;5000768;28;35892;-78
2021/12/13 04:29:32;;;;;;;12.10;6.20;;;8.40;58.90;;;;;;5000773;28;34166;-78
2021/12/13 04:32:09;;;;;;;11.85;5.80;;;8.50;59.00;;;;;;5001952;28;34141;-78
2021/12/13 04:34:41;;;;;;;18.35;6.15;;;8.40;58.90;;;;;;5002277;28;34167;-78
2021/12/13 04:37:12;;;;;;;11.68;6.32;;;8.50;59.00;;;;;;4985842;28;35647;-78
2021/12/13 04:39:40;;;;;;;12.43;5.90;;;8.40;58.90;;;;;;4985190;28;34197;-78
2021/12/13 04:42:11;;;;;;;13.10;5.75;;;8.40;58.90;;;;;;5002404;28;34139;-78
2021/12/13 04:44:54;;;;;;;11.48;5.50;;;8.40;58.90;;;;;;5000722;28;34090;-78
2021/12/13 04:47:27;;;;;;;11.70;5.78;;;8.40;58.90;;;;;;5001198;28;35510;-78
2021/12/13 04:50:04;;;;;;;10.38;5.82;;;8.40;58.90;;;;;;4985297;28;34206;-78
2021/12/13 04:52:33;;;;;;;13.07;5.63;;;8.40;58.90;;;;;;5018615;28;34331;-77
2021/12/13 04:55:01;;;;;;;8.50;5.47;;;8.40;58.90;;;;;;5001502;28;34282;-78
2021/12/13 04:57:28;;;;;;;8.63;5.07;;;8.40;58.90;;;;;;5001859;28;34971;-78
2021/12/13 04:59:59;;;;;;;10.98;5.63;;;8.40;58.90;;;;;;4984753;28;34193;-78
2021/12/13 05:02:26;;;;;;;13.45;5.80;;;8.50;59.00;;;;;;5002118;28;34044;-78
2021/12/13 05:04:56;;;;;;;11.20;5.13;;;8.40;58.90;;;;;;5001826;28;34122;-78
2021/12/13 05:07:25;;;;;;;11.07;4.82;;;8.50;59.00;;;;;;4999881;28;35934;-78
2021/12/13 05:09:52;;;;;;;12.80;5.30;;;8.40;58.90;;;;;;5000416;28;34291;-78
2021/12/13 05:12:25;;;;;;;15.82;5.03;;;8.50;59.00;;;;;;5000613;28;34406;-78
2021/12/13 05:14:57;;;;;;;12.98;4.75;;;8.40;58.90;;;;;;4985290;28;34327;-78
2021/12/13 05:17:31;;;;;;;9.15;5.45;;;8.40;58.90;;;;;;5017022;28;34737;-77
2021/12/13 05:20:13;;;;;;;9.18;4.63;;;8.40;58.90;;;;;;5000372;28;34111;-78
2021/12/13 05:22:49;;;;;;;15.15;5.57;;;8.40;58.90;;;;;;5002153;28;34185;-77
2021/12/13 05:25:27;;;;;;;15.50;5.05;;;8.40;58.90;;;;;;5001528;28;34099;-77
2021/12/13 05:28:00;;;;;;;8.70;5.32;;;8.50;58.90;;;;;;5000962;28;34946;-78
2021/12/13 05:30:26;;;;;;;9.63;5.28;;;8.40;58.90;;;;;;5000782;28;34189;-78
2021/12/13 05:33:00;;;;;;;6.97;4.25;;;8.40;58.90;;;;;;5001129;28;34399;-78
2021/12/13 05:35:33;;;;;;;10.32;5.25;;;8.40;58.90;;;;;;4983962;28;34393;-78
2021/12/13 05:38:05;;;;;;;9.40;5.07;;;8.50;58.90;;;;;;5002634;28;35092;-77
2021/12/13 05:40:39;;;;;;;20.48;5.00;;;8.40;58.90;;;;;;5002812;28;34168;-77
2021/12/13 05:43:18;;;;;;;18.60;5.88;;;8.40;58.90;;;;;;4986917;28;34282;-77
2021/12/13 05:45:49;;;;;;;9.65;5.32;;;8.40;58.90;;;;;;4986455;28;34099;-77
2021/12/13 05:48:20;;;;;;;10.32;5.95;;;8.40;58.90;;;;;;5002750;28;34325;-78
2021/12/13 05:50:52;;;;;;;13.90;5.50;;;8.40;58.90;;;;;;5019948;28;34328;-78
2021/12/13 05:53:27;;;;;;;8.63;4.78;;;8.40;58.90;;;;;;4986148;28;34405;-77
2021/12/13 05:56:06;;;;;;;7.53;4.43;;;8.40;58.80;;;;;;5003354;28;34408;-78
2021/12/13 05:58:39;;;;;;;7.75;4.13;;;8.40;58.90;;;;;;4985309;28;36845;-78
2021/12/13 06:01:12;;;;;;;8.73;4.53;;;8.40;58.90;;;;;;4985797;28;34450;-78
2021/12/13 06:03:43;;;;;;;6.82;4.18;;;8.50;58.90;;;;;;5002042;28;34281;-78
2021/12/13 06:06:14;;;;;;;7.43;3.65;;;8.40;58.90;;;;;;5002139;28;34487;-78
2021/12/13 06:08:46;;;;;;;7.25;4.47;;;8.40;58.90;;;;;;4985750;28;35892;-78
2021/12/13 06:11:17;;;;;;;7.78;4.43;;;8.50;59.00;;;;;;5019122;28;34095;-77
2021/12/13 06:13:56;;;;;;;9.30;4.95;;;8.40;58.90;;;;;;5002362;28;34226;-77
2021/12/13 06:16:44;;;;;;;11.45;5.47;;;8.40;58.90;;;;;;4985194;28;34173;-77
2021/12/13 06:19:37;;;;;;;7.53;4.65;;;8.40;59.00;;;;;;4988552;28;35534;-77
2021/12/13 06:22:16;;;;;;;18.85;5.40;;;8.50;59.10;;;;;;5001558;28;34235;-78
2021/12/13 06:24:46;;;;;;;11.77;4.97;;;8.40;59.00;;;;;;4984906;28;34178;-78
2021/12/13 06:27:17;;;;;;;9.40;5.07;;;8.40;59.00;;;;;;5001619;28;34638;-77
2021/12/13 06:30:00;;;;;;;10.40;5.40;;;8.40;58.90;;;;;;5001057;28;36519;-77
2021/12/13 06:32:34;;;;;;;8.10;4.40;;;8.40;58.90;;;;;;5002724;28;34303;-77
2021/12/13 06:35:39;;;;;;;11.85;5.40;;;8.40;58.90;;;;;;5018913;28;34331;-77
2021/12/13 06:38:25;;;;;;;7.97;5.00;;;8.40;58.90;;;;;;5006791;28;34209;-77
2021/12/13 06:41:01;;;;;;;7.53;4.40;;;8.50;59.00;;;;;;4984943;28;35968;-77
2021/12/13 06:43:42;;;;;;;7.90;4.88;;;8.40;58.90;;;;;;4984927;28;34285;-77
2021/12/13 06:46:27;;;;;;;8.40;4.53;;;8.40;58.90;;;;;;5002393;28;34239;-78
2021/12/13 06:48:59;;;;;;;12.10;4.72;;;8.40;58.90;;;;;;5020429;28;34181;-77
2021/12/13 06:51:44;;;;;;;10.25;4.60;;;8.40;58.90;;;;;;5001134;28;34201;-77
2021/12/13 06:54:17;;;;;;;8.00;4.30;;;8.40;58.90;;;;;;5002378;28;34187;-77
2021/12/13 06:56:50;;;;;;;9.80;5.35;;;8.40;58.90;;;;;;5001359;28;34209;-77
2021/12/13 06:59:18;;;;;;;10.50;5.43;;;8.50;59.00;;;;;;4984724;28;34195;-78
2021/12/13 07:01:58;;;;;;;7.80;4.40;;;8.40;59.10;;;;;;5000586;28;36098;-78
2021/12/13 07:04:25;;;;;;;9.20;5.55;;;8.50;59.00;;;;;;5017873;28;34112;-78
2021/12/13 07:06:51;;;;;;;8.05;4.45;;;8.40;59.00;;;;;;5001246;28;34103;-77
2021/12/13 07:09:22;;;;;;;8.43;4.90;;;8.40;59.00;;;;;;5001544;28;34332;-77
2021/12/13 07:11:55;;;;;;;8.18;4.72;;;8.40;59.70;;;;;;4985576;28;35489;-78
2021/12/13 07:14:36;;;;;;;8.77;4.45;;;8.40;58.90;;;;;;5001240;28;34068;-78
2021/12/13 07:17:13;;;;;;;10.95;4.82;;;8.40;59.00;;;;;;4985436;28;34264;-77
2021/12/13 07:19:42;;;;;;;7.28;4.28;;;8.40;59.00;;;;;;5000159;28;34179;-78
2021/12/13 07:22:08;;;;;;;8.15;4.35;;;8.40;59.00;;;;;;5000527;28;35927;-78
2021/12/13 07:24:42;;;;;;;8.10;4.50;;;8.40;59.00;;;;;;5001245;28;34230;-78
2021/12/13 07:27:13;;;;;;;7.45;4.30;;;8.40;59.00;;;;;;4985450;28;34269;-78
2021/12/13 07:29:49;;;;;;;7.90;4.30;;;8.40;58.90;;;;;;5000551;28;34480;-78
2021/12/13 07:32:28;;;;;;;6.28;4.25;;;8.40;58.90;;;;;;5002665;28;35532;-78
2021/12/13 07:35:08;;;;;;;6.25;4.07;;;8.40;58.90;;;;;;5001952;28;34378;-78
2021/12/13 07:37:51;;;;;;;8.80;4.45;;;8.40;58.90;;;;;;4984199;28;34422;-77
2021/12/13 07:40:35;;;;;;;9.57;4.93;;;8.40;58.90;;;;;;4986937;28;34375;-78
2021/12/13 07:43:23;;;;;;;9.93;4.80;;;8.40;59.00;;;;;;5001776;28;34380;-78
2021/12/13 07:46:06;;;;;;;9.02;4.50;;;8.50;59.10;;;;;;5002586;28;34115;-78
2021/12/13 07:48:53;;;;;;;6.95;4.47;;;8.50;59.10;;;;;;4984352;28;34105;-77
2021/12/13 07:51:25;;;;;;;9.98;4.93;;;8.50;59.10;;;;;;5001671;28;34388;-78
2021/12/13 07:54:01;;;;;;;8.45;4.90;;;8.50;59.80;;;;;;5002159;28;34564;-78
2021/12/13 07:56:50;;;;;;;9.23;4.97;;;8.50;59.10;;;;;;4984819;28;34456;-78
2021/12/13 07:59:33;;;;;;;8.77;4.75;;;8.50;59.30;;;;;;4986816;28;34386;-78
2021/12/13 08:02:17;;;;;;;8.15;4.70;;;8.50;59.30;;;;;;4984153;28;34301;-78
2021/12/13 08:04:49;;;;;;;11.20;5.47;;;8.50;59.20;;;;;;5018031;28;36080;-78
2021/12/13 08:07:20;;;;;;;8.30;4.13;;;8.50;59.20;;;;;;4984966;28;34214;-78
2021/12/13 08:10:03;;;;;;;8.50;4.80;;;8.50;59.20;;;;;;4984421;28;34070;-78
2021/12/13 08:12:35;;;;;;;7.85;4.82;;;8.50;59.20;;;;;;5001855;28;34090;-78
2021/12/13 08:15:23;;;;;;;7.78;4.90;;;8.50;59.20;;;;;;5000426;28;36082;-78
2021/12/13 08:17:55;;;;;;;7.32;4.40;;;8.60;59.20;;;;;;5000758;28;34558;-78
2021/12/13 08:20:32;;;;;;;6.45;4.18;;;8.60;59.20;;;;;;5001304;28;34201;-78
2021/12/13 08:23:01;;;;;;;11.93;4.18;;;8.60;59.10;;;;;;5017676;28;34313;-78
2021/12/13 08:25:32;;;;;;;7.03;4.25;;;8.60;59.10;;;;;;4983955;28;36249;-78
2021/12/13 08:28:03;;;;;;;6.80;3.50;;;8.70;59.20;;;;;;5000952;28;34162;-78
2021/12/13 08:30:49;;;;;;;4.60;3.13;;;8.70;59.20;;;;;;4984819;28;34122;-78
2021/12/13 08:33:32;;;;;;;5.35;3.38;;;8.70;59.10;;;;;;4986422;28;35084;-78
2021/12/13 08:36:12;;;;;;;4.55;2.80;;;8.80;59.00;;;;;;5001888;28;34259;-78
2021/12/13 08:39:05;;;;;;;4.80;3.08;;;8.80;59.00;;;;;;5001283;28;34189;-78
2021/12/13 08:41:37;;;;;;;4.78;2.75;;;8.90;59.70;;;;;;5014907;28;34232;-78
2021/12/13 08:44:18;;;;;;;6.53;3.03;;;8.90;58.90;;;;;;5018164;28;34288;-78
2021/12/13 08:47:06;;;;;;;4.45;3.10;;;8.90;58.90;;;;;;5001538;28;34208;-78
2021/12/13 08:49:39;;;;;;;3.97;2.80;;;8.90;58.80;;;;;;5002465;28;34176;-78
2021/12/13 08:52:26;;;;;;;6.18;3.03;;;8.90;58.80;;;;;;5000592;28;34195;-78
2021/12/13 08:55:14;;;;;;;5.20;2.97;;;9.00;58.80;;;;;;5000656;28;34461;-78
2021/12/13 08:58:12;;;;;;;6.47;3.38;;;9.00;58.80;;;;;;4986253;28;36896;-78
2021/12/13 09:00:54;;;;;;;4.22;2.90;;;9.00;58.60;;;;;;5004687;28;34326;-78
2021/12/13 09:03:28;;;;;;;4.40;3.00;;;9.10;58.80;;;;;;5000534;28;34204;-78
2021/12/13 09:06:04;;;;;;;5.43;3.00;;;9.10;58.80;;;;;;5017415;28;34170;-78
2021/12/13 09:09:00;;;;;;;4.93;3.28;;;9.10;58.70;;;;;;4984964;28;35625;-78
2021/12/13 09:11:38;;;;;;;6.20;2.53;;;9.20;58.80;;;;;;5004510;28;34514;-78
2021/12/13 09:14:21;;;;;;;4.10;3.03;;;9.20;58.60;;;;;;5000587;28;34391;-78
2021/12/13 09:17:16;;;;;;;3.75;3.20;;;9.20;58.60;;;;;;4984220;28;34125;-78
2021/12/13 09:19:54;;;;;;;5.03;3.20;;;9.30;58.70;;;;;;4986480;28;36481;-78
2021/12/13 09:22:32;;;;;;;4.97;3.47;;;9.30;58.60;;;;;;5017967;28;34125;-77
2021/12/13 09:25:21;;;;;;;5.32;3.45;;;9.30;58.50;;;;;;5002564;28;34190;-78
2021/12/13 09:27:55;;;;;;;4.30;2.83;;;9.40;58.50;;;;;;4986198;28;34661;-78
2021/12/13 09:30:46;;;;;;;5.72;2.95;;;9.40;58.40;;;;;;5001824;28;34332;-78
2021/12/13 09:33:21;;;;;;;3.65;3.10;;;9.40;58.40;;;;;;5000489;28;34189;-78
2021/12/13 09:36:05;;;;;;;5.50;3.67;;;9.30;58.60;;;;;;5000743;28;34187;-78
2021/12/13 09:39:04;;;;;;;5.15;3.35;;;9.40;58.50;;;;;;5001619;28;34256;-78
2021/12/13 09:41:49;;;;;;;4.68;3.28;;;9.40;58.40;;;;;;4999071;28;35535;-77
2021/12/13 09:44:29;;;;;;;4.75;3.40;;;9.40;58.40;;;;;;4985177;28;34219;-77
2021/12/13 09:47:08;;;;;;;3.65;2.95;;;9.40;58.60;;;;;;5000240;28;34379;-77
2021/12/13 09:49:47;;;;;;;2.65;2.42;;;9.50;58.50;;;;;;4999982;28;34180;-77
2021/12/13 09:52:34;;;;;;;4.47;2.90;;;9.50;58.40;;;;;;5016768;28;34392;-77
2021/12/13 09:55:08;;;;;;;4.57;3.15;;;9.50;58.50;;;;;;4999882;28;34217;-77
2021/12/13 09:57:49;;;;;;;3.78;3.00;;;9.60;58.40;;;;;;4983716;28;34167;-78
2021/12/13 10:00:23;;;;;;;4.30;3.00;;;9.60;58.40;;;;;;5001128;28;34157;-78
2021/12/13 10:02:55;;;;;;;5.38;2.63;;;9.60;58.50;;;;;;5016141;28;34434;-77
2021/12/13 10:05:28;;;;;;;3.55;2.80;;;9.60;58.50;;;;;;4999560;28;34203;-77
2021/12/13 10:07:59;;;;;;;4.35;3.00;;;9.70;58.40;;;;;;4999178;28;34291;-77
2021/12/13 10:10:30;;;;;;;3.55;2.85;;;9.70;58.10;;;;;;5000059;28;34347;-77
2021/12/13 10:13:04;;;;;;;3.45;2.40;;;9.70;58.10;;;;;;4998481;28;35816;-77
2021/12/13 10:15:38;;;;;;;3.47;2.50;;;9.70;58.10;;;;;;5000255;28;34254;-77
2021/12/13 10:18:09;;;;;;;2.80;1.92;;;9.70;58.10;;;;;;4999376;28;34169;-77
2021/12/13 10:20:41;;;;;;;2.80;2.42;;;9.70;58.30;;;;;;4998922;28;34801;-77
2021/12/13 10:23:12;;;;;;;2.90;2.58;;;9.80;58.10;;;;;;4985458;28;35613;-77
2021/12/13 10:25:42;;;;;;;3.17;2.50;;;9.80;58.10;;;;;;5020973;28;34189;-77
2021/12/13 10:28:12;;;;;;;3.83;2.40;;;9.80;58.00;;;;;;5023151;28;34234;-77
2021/12/13 10:30:44;;;;;;;3.55;2.53;;;9.90;58.10;;;;;;5007030;28;34081;-77
2021/12/13 10:33:11;;;;;;;3.28;2.78;;;9.90;58.10;;;;;;5006102;28;36433;-77
2021/12/13 10:35:42;;;;;;;2.60;2.38;;;9.90;58.10;;;;;;5022733;28;34174;-77
2021/12/13 10:38:15;;;;;;;3.90;2.35;;;9.90;57.90;;;;;;5005587;28;34117;-77
2021/12/13 10:40:52;;;;;;;2.50;1.90;;;9.90;57.90;;;;;;5023298;28;34302;-77
2021/12/13 10:43:23;;;;;;;3.85;2.28;;;9.90;57.80;;;;;;5006152;28;35633;-77
2021/12/13 10:45:57;;;;;;;3.67;2.13;;;9.90;58.00;;;;;;5005802;28;34193;-78
2021/12/13 10:48:27;;;;;;;2.38;2.13;;;9.90;57.90;;;;;;5007228;28;34104;-77
2021/12/13 10:51:01;;;;;;;2.17;1.67;;;9.90;57.90;;;;;;5023324;28;34532;-78
2021/12/13 10:53:28;;;;;;;2.85;2.22;;;9.90;57.90;;;;;;5021819;28;34653;-77
2021/12/13 10:55:59;;;;;;;2.38;1.85;;;9.90;57.90;;;;;;5021133;28;34105;-77
2021/12/13 11:01:41;;;;;;;2.60;1.83;;;9.90;57.90;;;;;;5022485;28;34630;-77
2021/12/13 11:04:12;;;;;;;2.28;2.08;;;9.90;58.10;;;;;;5005138;28;36112;-77
2021/12/13 11:06:42;;;;;;;2.97;2.28;;;9.90;58.10;;;;;;4988800;28;33715;-78
2021/12/13 11:09:16;;;;;;;2.63;2.10;;;9.90;58.00;;;;;;5005849;28;34418;-78
2021/12/13 11:11:47;;;;;;;2.40;2.10;;;10.00;57.90;;;;;;5006240;28;34147;-78
2021/12/13 11:14:17;;;;;;;2.30;1.95;;;10.00;57.90;;;;;;4989023;28;35728;-78
2021/12/13 11:16:48;;;;;;;2.75;2.10;;;10.10;57.80;;;;;;5023221;28;34179;-78
2021/12/13 11:19:19;;;;;;;2.95;2.10;;;10.20;57.80;;;;;;5036975;28;34540;-78
2021/12/13 11:21:49;;;;;;;2.35;2.00;;;10.20;57.80;;;;;;5012581;28;34333;-77
2021/12/13 11:24:22;;;;;;;3.00;2.00;;;10.20;57.70;;;;;;5011638;28;35556;-78
2021/12/13 11:26:52;;;;;;;3.05;2.08;;;10.20;57.60;;;;;;5028475;28;34244;-78
2021/12/13 11:29:19;;;;;;;2.88;2.08;;;10.20;57.70;;;;;;5044987;27;34235;-78
2021/12/13 11:32:20;;;;;;;2.53;2.00;;;10.20;57.70;;;;;;5061855;27;34185;-77
2021/12/13 11:35:21;;;;;;;2.35;2.10;;;10.30;57.50;;;;;;5030940;28;35786;-78
2021/12/13 11:38:20;;;;;;;3.00;1.90;;;10.30;57.70;;;;;;5030856;28;34214;-78
2021/12/13 11:41:17;;;;;;;3.97;2.53;;;10.20;57.50;;;;;;5062226;27;34350;-78
2021/12/13 11:44:09;;;;;;;2.70;1.73;;;10.20;57.60;;;;;;5044168;28;34538;-78
2021/12/13 11:47:13;;;;;;;1.90;1.63;;;10.20;57.60;;;;;;5029370;28;35524;-78
2021/12/13 11:50:05;;;;;;;2.22;1.90;;;10.20;57.60;;;;;;5046787;28;34373;-78
2021/12/13 11:53:02;;;;;;;2.60;2.25;;;10.20;57.70;;;;;;5030160;28;34161;-78
2021/12/13 11:55:59;;;;;;;2.70;2.40;;;10.30;57.80;;;;;;5062172;28;34339;-78
2021/12/13 11:58:53;;;;;;;4.60;2.80;;;10.30;57.50;;;;;;5043835;28;37004;-78
2021/12/13 12:01:50;;;;;;;3.33;2.70;;;10.30;57.60;;;;;;5030284;28;34111;-78
2021/12/13 12:04:47;;;;;;;5.03;2.80;;;10.20;57.40;;;;;;5031820;28;34205;-78
2021/12/13 12:07:37;;;;;;;4.03;3.03;;;10.20;57.30;;;;;;5043989;27;34174;-78
2021/12/13 12:10:26;;;;;;;3.53;2.88;;;10.20;57.50;;;;;;5046403;27;35020;-78
2021/12/13 12:13:27;;;;;;;3.88;3.17;;;10.20;57.70;;;;;;5029139;28;34188;-77
2021/12/13 12:16:00;;;;;;;3.85;3.10;;;10.20;57.70;;;;;;5044027;27;34331;-77
2021/12/13 12:18:27;;;;;;;5.75;3.00;;;10.10;57.80;;;;;;5044301;27;34472;-78
2021/12/13 12:21:24;;;;;;;3.60;3.20;;;10.20;58.60;;;;;;5026456;28;35753;-78
2021/12/13 12:23:50;;;;;;;4.53;3.08;;;10.20;57.80;;;;;;5043141;28;34374;-78
2021/12/13 12:26:16;;;;;;;3.78;2.72;;;10.10;57.90;;;;;;5026885;28;34156;-77
2021/12/13 12:28:46;;;;;;;3.40;2.97;;;10.10;57.90;;;;;;5044515;27;34363;-78
2021/12/13 12:31:13;;;;;;;2.63;2.42;;;10.10;57.80;;;;;;5027366;28;35731;-78
2021/12/13 12:33:40;;;;;;;3.20;2.78;;;10.10;57.80;;;;;;5061331;27;34166;-78
2021/12/13 12:36:18;;;;;;;4.35;2.47;;;10.20;57.70;;;;;;5043847;28;34215;-78
2021/12/13 12:39:24;;;;;;;4.05;2.90;;;10.20;57.70;;;;;;5061539;27;34220;-78
2021/12/13 12:42:13;;;;;;;4.45;2.80;;;10.20;57.60;;;;;;5018052;28;36286;-78
2021/12/13 12:45:14;;;;;;;3.33;2.92;;;10.20;57.80;;;;;;5042746;27;34162;-78
2021/12/13 12:48:05;;;;;;;3.45;2.50;;;10.20;57.60;;;;;;5030563;28;34183;-77
2021/12/13 12:50:37;;;;;;;4.03;2.90;;;10.20;57.50;;;;;;5048390;28;34205;-78
2021/12/13 12:53:09;;;;;;;2.97;2.53;;;10.20;57.90;;;;;;5044183;28;36160;-78
2021/12/13 12:55:45;;;;;;;3.17;2.55;;;10.20;57.80;;;;;;5028309;28;34141;-78
2021/12/13 12:58:15;;;;;;;3.85;2.40;;;10.20;57.80;;;;;;5027539;28;34243;-78
2021/12/13 13:00:43;;;;;;;2.22;1.95;;;10.20;57.80;;;;;;5045301;27;34189;-78
2021/12/13 13:03:21;;;;;;;2.63;2.13;;;10.30;57.80;;;;;;5027944;28;35758;-78
2021/12/13 13:05:47;;;;;;;3.03;2.65;;;10.30;57.80;;;;;;5044681;27;34291;-78
2021/12/13 13:08:25;;;;;;;3.28;2.40;;;10.20;58.00;;;;;;5044830;27;34535;-78
2021/12/13 13:11:19;;;;;;;3.17;2.53;;;10.30;58.10;;;;;;5044754;28;34078;-78
2021/12/13 13:13:42;;;;;;;2.92;2.38;;;10.30;58.00;;;;;;5046376;28;35075;-78
2021/12/13 13:16:09;;;;;;;3.40;2.72;;;10.30;57.80;;;;;;5044341;28;34287;-78
2021/12/13 13:18:38;;;;;;;3.80;2.72;;;10.20;57.80;;;;;;5043221;27;34476;-78
2021/12/13 13:21:06;;;;;;;3.83;2.58;;;10.20;57.80;;;;;;5043498;28;34036;-78
2021/12/13 13:23:41;;;;;;;3.17;2.80;;;10.20;57.80;;;;;;5009958;28;35923;-78
2021/12/13 13:26:08;;;;;;;2.50;2.20;;;10.20;57.90;;;;;;5043179;28;34438;-78
2021/12/13 13:28:44;;;;;;;3.70;2.63;;;10.20;57.90;;;;;;5042987;27;34327;-78
2021/12/13 13:31:17;;;;;;;3.38;2.20;;;10.20;57.90;;;;;;5026860;28;34206;-78
2021/12/13 13:33:49;;;;;;;3.47;2.45;;;10.20;58.00;;;;;;5043269;27;34518;-78
2021/12/13 13:36:24;;;;;;;2.50;2.10;;;10.20;58.00;;;;;;5043166;28;34212;-78
2021/12/13 13:38:50;;;;;;;1.88;1.77;;;10.20;57.90;;;;;;5026192;28;34246;-78
2021/12/13 13:41:20;;;;;;;2.28;1.48;;;10.20;58.00;;;;;;5026646;28;34117;-78
2021/12/13 13:43:50;;;;;;;1.33;1.20;;;10.20;57.70;;;;;;5011248;28;36086;-78
2021/12/13 13:46:18;;;;;;;1.45;0.60;;;10.20;57.60;;;;;;5042886;28;34195;-78